Terminal Aerodrome Forecast
Issued by NWS

Home | Current Version | Previous Version | Text Only | Print | Product List | Glossary On
Versions: 1 2 3 4 5 6 7 8 9 10 11 12 13 14 15 16 17 18 19 20 21 22
000
FTUS45 KREV 282300
TAFTRK
TAF
KTRK 282323Z 2900/2924 VRB04KT P6SM FEW060 FEW200
     FM291000 00000KT 1/2SM FZFG VV002
     FM291500 VRB03KT P6SM FEW060 BKN200
      AMD NOT SKED 2902/2912=

USA.gov is the U.S. government's official web portal to all federal, state and local government web resources and services.